sensor_id;sensor_type;location;lat;lon;timestamp;P1;durP1;ratioP1;P2;durP2;ratioP2
54328;SDS011;40710;51.120;13.136;2023-04-07T00:01:55;24.45;;;24.45;;
54328;SDS011;40710;51.120;13.136;2023-04-07T00:04:19;24.01;;;24.00;;
54328;SDS011;40710;51.120;13.136;2023-04-07T00:06:44;23.74;;;23.74;;
54328;SDS011;40710;51.120;13.136;2023-04-07T00:09:09;23.18;;;23.18;;
54328;SDS011;40710;51.120;13.136;2023-04-07T00:11:36;22.60;;;22.60;;
54328;SDS011;40710;51.120;13.136;2023-04-07T00:14:01;23.81;;;23.81;;
54328;SDS011;40710;51.120;13.136;2023-04-07T00:16:25;24.05;;;24.04;;
54328;SDS011;40710;51.120;13.136;2023-04-07T00:18:50;23.11;;;23.11;;
54328;SDS011;40710;51.120;13.136;2023-04-07T00:21:14;23.39;;;23.36;;
54328;SDS011;40710;51.120;13.136;2023-04-07T00:23:39;23.65;;;23.63;;
54328;SDS011;40710;51.120;13.136;2023-04-07T00:26:03;23.99;;;23.96;;
54328;SDS011;40710;51.120;13.136;2023-04-07T00:28:28;50.24;;;49.32;;
54328;SDS011;40710;51.120;13.136;2023-04-07T00:30:52;122.86;;;116.98;;
54328;SDS011;40710;51.120;13.136;2023-04-07T00:33:17;33.06;;;32.18;;
54328;SDS011;40710;51.120;13.136;2023-04-07T00:35:41;24.09;;;23.95;;
54328;SDS011;40710;51.120;13.136;2023-04-07T00:38:06;22.81;;;22.81;;
54328;SDS011;40710;51.120;13.136;2023-04-07T00:40:30;22.61;;;22.60;;
54328;SDS011;40710;51.120;13.136;2023-04-07T00:42:55;23.37;;;23.37;;
54328;SDS011;40710;51.120;13.136;2023-04-07T00:45:20;23.59;;;23.59;;
54328;SDS011;40710;51.120;13.136;2023-04-07T00:47:44;23.64;;;23.62;;
54328;SDS011;40710;51.120;13.136;2023-04-07T00:50:09;23.72;;;23.72;;
54328;SDS011;40710;51.120;13.136;2023-04-07T00:52:34;24.34;;;24.30;;
54328;SDS011;40710;51.120;13.136;2023-04-07T00:54:59;24.74;;;24.74;;
54328;SDS011;40710;51.120;13.136;2023-04-07T00:57:24;23.99;;;23.99;;
54328;SDS011;40710;51.120;13.136;2023-04-07T00:59:49;24.09;;;23.99;;
54328;SDS011;40710;51.120;13.136;2023-04-07T01:05:09;24.46;;;24.46;;
54328;SDS011;40710;51.120;13.136;2023-04-07T01:07:47;24.95;;;24.92;;
54328;SDS011;40710;51.120;13.136;2023-04-07T01:10:26;24.52;;;24.42;;
54328;SDS011;40710;51.120;13.136;2023-04-07T01:13:05;24.43;;;24.43;;
54328;SDS011;40710;51.120;13.136;2023-04-07T01:15:45;24.07;;;24.06;;
54328;SDS011;40710;51.120;13.136;2023-04-07T01:18:21;24.47;;;24.46;;
54328;SDS011;40710;51.120;13.136;2023-04-07T01:20:51;24.71;;;24.71;;
54328;SDS011;40710;51.120;13.136;2023-04-07T01:23:31;24.40;;;24.40;;
54328;SDS011;40710;51.120;13.136;2023-04-07T01:26:32;24.66;;;24.66;;
54328;SDS011;40710;51.120;13.136;2023-04-07T01:31:41;24.06;;;24.06;;
54328;SDS011;40710;51.120;13.136;2023-04-07T01:34:09;24.40;;;24.40;;
54328;SDS011;40710;51.120;13.136;2023-04-07T01:36:36;24.65;;;24.65;;
54328;SDS011;40710;51.120;13.136;2023-04-07T01:39:01;24.82;;;24.82;;
54328;SDS011;40710;51.120;13.136;2023-04-07T01:41:26;24.84;;;24.78;;
54328;SDS011;40710;51.120;13.136;2023-04-07T01:43:51;24.09;;;24.07;;
54328;SDS011;40710;51.120;13.136;2023-04-07T01:46:17;23.97;;;23.97;;
54328;SDS011;40710;51.120;13.136;2023-04-07T01:48:42;24.27;;;24.27;;
54328;SDS011;40710;51.120;13.136;2023-04-07T01:51:08;24.09;;;24.09;;
54328;SDS011;40710;51.120;13.136;2023-04-07T01:53:35;23.61;;;23.61;;
54328;SDS011;40710;51.120;13.136;2023-04-07T01:56:01;23.63;;;23.41;;
54328;SDS011;40710;51.120;13.136;2023-04-07T01:58:25;24.02;;;23.87;;
54328;SDS011;40710;51.120;13.136;2023-04-07T02:00:50;23.32;;;23.32;;
54328;SDS011;40710;51.120;13.136;2023-04-07T02:03:17;23.66;;;23.65;;
54328;SDS011;40710;51.120;13.136;2023-04-07T02:05:46;23.88;;;23.87;;
54328;SDS011;40710;51.120;13.136;2023-04-07T02:08:15;24.20;;;24.19;;
54328;SDS011;40710;51.120;13.136;2023-04-07T02:10:44;23.72;;;23.72;;
54328;SDS011;40710;51.120;13.136;2023-04-07T02:13:12;23.36;;;23.35;;
54328;SDS011;40710;51.120;13.136;2023-04-07T02:15:40;23.85;;;23.85;;
54328;SDS011;40710;51.120;13.136;2023-04-07T02:18:07;24.52;;;24.51;;
54328;SDS011;40710;51.120;13.136;2023-04-07T02:20:34;24.98;;;24.97;;
54328;SDS011;40710;51.120;13.136;2023-04-07T02:23:00;23.62;;;23.58;;
54328;SDS011;40710;51.120;13.136;2023-04-07T02:25:26;24.40;;;24.40;;
54328;SDS011;40710;51.120;13.136;2023-04-07T02:27:53;24.22;;;24.22;;
54328;SDS011;40710;51.120;13.136;2023-04-07T02:30:19;24.21;;;24.19;;
54328;SDS011;40710;51.120;13.136;2023-04-07T02:32:44;24.18;;;24.18;;
54328;SDS011;40710;51.120;13.136;2023-04-07T02:35:09;23.90;;;23.90;;
54328;SDS011;40710;51.120;13.136;2023-04-07T02:37:34;24.65;;;24.65;;
54328;SDS011;40710;51.120;13.136;2023-04-07T02:39:58;24.31;;;24.31;;
54328;SDS011;40710;51.120;13.136;2023-04-07T02:42:23;24.38;;;24.36;;
54328;SDS011;40710;51.120;13.136;2023-04-07T02:44:48;24.22;;;24.22;;
54328;SDS011;40710;51.120;13.136;2023-04-07T02:47:12;23.96;;;23.96;;
54328;SDS011;40710;51.120;13.136;2023-04-07T02:49:37;23.40;;;23.40;;
54328;SDS011;40710;51.120;13.136;2023-04-07T02:52:01;23.63;;;23.60;;
54328;SDS011;40710;51.120;13.136;2023-04-07T02:54:26;23.54;;;23.46;;
54328;SDS011;40710;51.120;13.136;2023-04-07T02:56:50;23.39;;;23.39;;
54328;SDS011;40710;51.120;13.136;2023-04-07T02:59:15;24.27;;;24.27;;
54328;SDS011;40710;51.120;13.136;2023-04-07T03:01:39;25.03;;;24.85;;
54328;SDS011;40710;51.120;13.136;2023-04-07T03:04:04;24.86;;;24.75;;
54328;SDS011;40710;51.120;13.136;2023-04-07T03:06:29;24.84;;;24.84;;
54328;SDS011;40710;51.120;13.136;2023-04-07T03:08:54;23.89;;;23.89;;
54328;SDS011;40710;51.120;13.136;2023-04-07T03:11:19;24.11;;;24.11;;
54328;SDS011;40710;51.120;13.136;2023-04-07T03:13:44;22.82;;;22.82;;
54328;SDS011;40710;51.120;13.136;2023-04-07T03:16:08;23.17;;;23.17;;
54328;SDS011;40710;51.120;13.136;2023-04-07T03:18:33;23.46;;;23.46;;
54328;SDS011;40710;51.120;13.136;2023-04-07T03:20:58;23.05;;;23.04;;
54328;SDS011;40710;51.120;13.136;2023-04-07T03:23:23;22.58;;;22.58;;
54328;SDS011;40710;51.120;13.136;2023-04-07T03:25:48;22.77;;;22.75;;
54328;SDS011;40710;51.120;13.136;2023-04-07T03:28:12;22.48;;;22.48;;
54328;SDS011;40710;51.120;13.136;2023-04-07T03:30:37;23.22;;;23.01;;
54328;SDS011;40710;51.120;13.136;2023-04-07T03:33:01;22.53;;;22.45;;
54328;SDS011;40710;51.120;13.136;2023-04-07T03:35:26;22.35;;;22.33;;
54328;SDS011;40710;51.120;13.136;2023-04-07T03:37:50;22.84;;;22.83;;
54328;SDS011;40710;51.120;13.136;2023-04-07T03:40:15;22.79;;;22.77;;
54328;SDS011;40710;51.120;13.136;2023-04-07T03:42:40;22.23;;;22.23;;
54328;SDS011;40710;51.120;13.136;2023-04-07T03:45:04;22.35;;;22.31;;
54328;SDS011;40710;51.120;13.136;2023-04-07T03:47:29;22.98;;;22.96;;
54328;SDS011;40710;51.120;13.136;2023-04-07T03:49:54;23.08;;;23.08;;
54328;SDS011;40710;51.120;13.136;2023-04-07T03:52:18;23.32;;;23.32;;
54328;SDS011;40710;51.120;13.136;2023-04-07T03:54:43;23.02;;;23.02;;
54328;SDS011;40710;51.120;13.136;2023-04-07T03:57:07;23.86;;;23.86;;
54328;SDS011;40710;51.120;13.136;2023-04-07T03:59:32;23.52;;;23.51;;
54328;SDS011;40710;51.120;13.136;2023-04-07T04:01:56;23.69;;;23.69;;
54328;SDS011;40710;51.120;13.136;2023-04-07T04:04:21;23.15;;;23.15;;
54328;SDS011;40710;51.120;13.136;2023-04-07T04:06:47;23.87;;;23.82;;
54328;SDS011;40710;51.120;13.136;2023-04-07T04:09:12;23.84;;;23.84;;
54328;SDS011;40710;51.120;13.136;2023-04-07T04:11:37;24.50;;;24.50;;
54328;SDS011;40710;51.120;13.136;2023-04-07T04:14:02;24.16;;;24.15;;
54328;SDS011;40710;51.120;13.136;2023-04-07T04:16:26;24.46;;;24.46;;
54328;SDS011;40710;51.120;13.136;2023-04-07T04:18:51;24.13;;;24.13;;
54328;SDS011;40710;51.120;13.136;2023-04-07T04:21:15;24.29;;;24.29;;
54328;SDS011;40710;51.120;13.136;2023-04-07T04:23:40;24.09;;;23.94;;
54328;SDS011;40710;51.120;13.136;2023-04-07T04:26:04;24.52;;;24.50;;
54328;SDS011;40710;51.120;13.136;2023-04-07T04:28:29;23.90;;;23.87;;
54328;SDS011;40710;51.120;13.136;2023-04-07T04:30:54;24.73;;;24.66;;
54328;SDS011;40710;51.120;13.136;2023-04-07T04:33:19;24.74;;;24.74;;
54328;SDS011;40710;51.120;13.136;2023-04-07T04:35:44;25.37;;;25.12;;
54328;SDS011;40710;51.120;13.136;2023-04-07T04:38:09;24.58;;;24.51;;
54328;SDS011;40710;51.120;13.136;2023-04-07T04:40:34;24.63;;;24.63;;
54328;SDS011;40710;51.120;13.136;2023-04-07T04:42:58;24.57;;;24.55;;
54328;SDS011;40710;51.120;13.136;2023-04-07T04:45:23;24.16;;;24.10;;
54328;SDS011;40710;51.120;13.136;2023-04-07T04:47:47;23.70;;;23.70;;
54328;SDS011;40710;51.120;13.136;2023-04-07T04:50:12;24.57;;;24.28;;
54328;SDS011;40710;51.120;13.136;2023-04-07T04:52:36;23.57;;;23.55;;
54328;SDS011;40710;51.120;13.136;2023-04-07T04:55:02;23.83;;;23.80;;
54328;SDS011;40710;51.120;13.136;2023-04-07T04:57:26;22.90;;;22.90;;
54328;SDS011;40710;51.120;13.136;2023-04-07T04:59:51;24.32;;;24.21;;
54328;SDS011;40710;51.120;13.136;2023-04-07T05:02:15;24.01;;;23.86;;
54328;SDS011;40710;51.120;13.136;2023-04-07T05:04:40;22.96;;;22.92;;
54328;SDS011;40710;51.120;13.136;2023-04-07T05:07:04;23.82;;;23.82;;
54328;SDS011;40710;51.120;13.136;2023-04-07T05:09:29;22.85;;;22.84;;
54328;SDS011;40710;51.120;13.136;2023-04-07T05:11:54;22.94;;;22.90;;
54328;SDS011;40710;51.120;13.136;2023-04-07T05:14:19;22.80;;;22.80;;
54328;SDS011;40710;51.120;13.136;2023-04-07T05:16:43;23.77;;;23.71;;
54328;SDS011;40710;51.120;13.136;2023-04-07T05:19:08;23.57;;;23.57;;
54328;SDS011;40710;51.120;13.136;2023-04-07T05:21:33;23.59;;;23.59;;
54328;SDS011;40710;51.120;13.136;2023-04-07T05:23:57;23.54;;;23.54;;
54328;SDS011;40710;51.120;13.136;2023-04-07T05:26:22;23.59;;;23.59;;
54328;SDS011;40710;51.120;13.136;2023-04-07T05:28:47;23.50;;;23.50;;
54328;SDS011;40710;51.120;13.136;2023-04-07T05:31:11;23.15;;;23.14;;
54328;SDS011;40710;51.120;13.136;2023-04-07T05:33:36;22.54;;;22.48;;
54328;SDS011;40710;51.120;13.136;2023-04-07T05:36:00;22.56;;;22.53;;
54328;SDS011;40710;51.120;13.136;2023-04-07T05:38:25;22.23;;;22.22;;
54328;SDS011;40710;51.120;13.136;2023-04-07T05:40:49;21.42;;;21.41;;
54328;SDS011;40710;51.120;13.136;2023-04-07T05:43:15;21.43;;;21.42;;
54328;SDS011;40710;51.120;13.136;2023-04-07T05:45:39;21.93;;;21.93;;
54328;SDS011;40710;51.120;13.136;2023-04-07T05:48:04;21.22;;;21.14;;
54328;SDS011;40710;51.120;13.136;2023-04-07T05:50:28;21.66;;;21.65;;
54328;SDS011;40710;51.120;13.136;2023-04-07T05:52:53;22.45;;;22.25;;
54328;SDS011;40710;51.120;13.136;2023-04-07T05:55:17;22.50;;;22.49;;
54328;SDS011;40710;51.120;13.136;2023-04-07T05:57:42;22.22;;;22.22;;
54328;SDS011;40710;51.120;13.136;2023-04-07T06:00:07;21.89;;;21.89;;
54328;SDS011;40710;51.120;13.136;2023-04-07T06:02:32;21.39;;;21.39;;
54328;SDS011;40710;51.120;13.136;2023-04-07T06:04:57;20.46;;;20.46;;
54328;SDS011;40710;51.120;13.136;2023-04-07T06:07:22;19.76;;;19.76;;
54328;SDS011;40710;51.120;13.136;2023-04-07T06:09:46;19.92;;;19.92;;
54328;SDS011;40710;51.120;13.136;2023-04-07T06:12:11;19.87;;;19.87;;
54328;SDS011;40710;51.120;13.136;2023-04-07T06:14:35;19.44;;;19.44;;
54328;SDS011;40710;51.120;13.136;2023-04-07T06:17:00;19.34;;;19.34;;
54328;SDS011;40710;51.120;13.136;2023-04-07T06:19:24;18.89;;;18.89;;
54328;SDS011;40710;51.120;13.136;2023-04-07T06:21:50;19.24;;;19.21;;
54328;SDS011;40710;51.120;13.136;2023-04-07T06:24:15;19.24;;;19.19;;
54328;SDS011;40710;51.120;13.136;2023-04-07T06:26:39;19.26;;;19.25;;
54328;SDS011;40710;51.120;13.136;2023-04-07T06:29:04;19.39;;;19.38;;
54328;SDS011;40710;51.120;13.136;2023-04-07T06:31:29;27.06;;;26.88;;
54328;SDS011;40710;51.120;13.136;2023-04-07T06:33:53;40.32;;;38.92;;
54328;SDS011;40710;51.120;13.136;2023-04-07T06:36:19;41.83;;;40.65;;
54328;SDS011;40710;51.120;13.136;2023-04-07T06:38:44;23.06;;;22.87;;
54328;SDS011;40710;51.120;13.136;2023-04-07T06:41:09;18.41;;;18.40;;
54328;SDS011;40710;51.120;13.136;2023-04-07T06:43:41;18.47;;;18.46;;
54328;SDS011;40710;51.120;13.136;2023-04-07T06:46:06;17.40;;;17.36;;
54328;SDS011;40710;51.120;13.136;2023-04-07T06:48:31;17.32;;;17.32;;
54328;SDS011;40710;51.120;13.136;2023-04-07T06:50:55;17.21;;;17.18;;
54328;SDS011;40710;51.120;13.136;2023-04-07T06:53:20;18.68;;;18.64;;
54328;SDS011;40710;51.120;13.136;2023-04-07T06:55:44;18.40;;;18.40;;
54328;SDS011;40710;51.120;13.136;2023-04-07T06:58:09;16.96;;;16.96;;
54328;SDS011;40710;51.120;13.136;2023-04-07T07:00:35;18.95;;;18.83;;
54328;SDS011;40710;51.120;13.136;2023-04-07T07:03:00;18.95;;;18.95;;
54328;SDS011;40710;51.120;13.136;2023-04-07T07:05:24;21.28;;;21.02;;
54328;SDS011;40710;51.120;13.136;2023-04-07T07:07:49;21.49;;;21.35;;
54328;SDS011;40710;51.120;13.136;2023-04-07T07:10:14;18.58;;;18.58;;
54328;SDS011;40710;51.120;13.136;2023-04-07T07:12:39;18.35;;;18.35;;
54328;SDS011;40710;51.120;13.136;2023-04-07T07:15:04;18.29;;;18.29;;
54328;SDS011;40710;51.120;13.136;2023-04-07T07:17:29;17.36;;;17.36;;
54328;SDS011;40710;51.120;13.136;2023-04-07T07:19:53;17.41;;;17.34;;
54328;SDS011;40710;51.120;13.136;2023-04-07T07:22:18;16.78;;;16.69;;
54328;SDS011;40710;51.120;13.136;2023-04-07T07:24:42;26.35;;;25.93;;
54328;SDS011;40710;51.120;13.136;2023-04-07T07:27:07;63.67;;;61.49;;
54328;SDS011;40710;51.120;13.136;2023-04-07T07:29:31;31.04;;;30.42;;
54328;SDS011;40710;51.120;13.136;2023-04-07T07:31:56;17.64;;;17.64;;
54328;SDS011;40710;51.120;13.136;2023-04-07T07:34:20;17.05;;;17.04;;
54328;SDS011;40710;51.120;13.136;2023-04-07T07:36:45;18.70;;;18.66;;
54328;SDS011;40710;51.120;13.136;2023-04-07T07:39:10;19.66;;;19.66;;
54328;SDS011;40710;51.120;13.136;2023-04-07T07:41:34;18.29;;;18.28;;
54328;SDS011;40710;51.120;13.136;2023-04-07T07:43:59;16.75;;;16.75;;
54328;SDS011;40710;51.120;13.136;2023-04-07T07:46:23;15.78;;;15.78;;
54328;SDS011;40710;51.120;13.136;2023-04-07T07:48:50;15.44;;;15.44;;
54328;SDS011;40710;51.120;13.136;2023-04-07T07:51:14;14.44;;;14.38;;
54328;SDS011;40710;51.120;13.136;2023-04-07T07:53:39;15.06;;;14.79;;
54328;SDS011;40710;51.120;13.136;2023-04-07T07:56:04;15.33;;;15.06;;
54328;SDS011;40710;51.120;13.136;2023-04-07T07:58:28;15.61;;;15.37;;
54328;SDS011;40710;51.120;13.136;2023-04-07T08:00:53;16.11;;;15.96;;
54328;SDS011;40710;51.120;13.136;2023-04-07T08:03:18;14.29;;;14.16;;
54328;SDS011;40710;51.120;13.136;2023-04-07T08:05:45;14.03;;;13.85;;
54328;SDS011;40710;51.120;13.136;2023-04-07T08:08:11;14.05;;;13.91;;
54328;SDS011;40710;51.120;13.136;2023-04-07T08:10:36;13.81;;;13.74;;
54328;SDS011;40710;51.120;13.136;2023-04-07T08:13:01;14.21;;;13.98;;
54328;SDS011;40710;51.120;13.136;2023-04-07T08:15:25;13.16;;;13.05;;
54328;SDS011;40710;51.120;13.136;2023-04-07T08:17:50;12.72;;;12.71;;
54328;SDS011;40710;51.120;13.136;2023-04-07T08:20:14;12.96;;;12.85;;
54328;SDS011;40710;51.120;13.136;2023-04-07T08:22:39;13.71;;;13.48;;
54328;SDS011;40710;51.120;13.136;2023-04-07T08:25:04;13.89;;;13.71;;
54328;SDS011;40710;51.120;13.136;2023-04-07T08:27:29;13.92;;;13.91;;
54328;SDS011;40710;51.120;13.136;2023-04-07T08:30:01;14.16;;;14.05;;
54328;SDS011;40710;51.120;13.136;2023-04-07T08:32:37;20.27;;;20.03;;
54328;SDS011;40710;51.120;13.136;2023-04-07T08:35:05;41.07;;;39.74;;
54328;SDS011;40710;51.120;13.136;2023-04-07T08:37:30;17.42;;;17.11;;
54328;SDS011;40710;51.120;13.136;2023-04-07T08:39:55;13.02;;;13.02;;
54328;SDS011;40710;51.120;13.136;2023-04-07T08:42:20;13.61;;;13.43;;
54328;SDS011;40710;51.120;13.136;2023-04-07T08:44:51;12.86;;;12.79;;
54328;SDS011;40710;51.120;13.136;2023-04-07T08:47:19;13.52;;;13.52;;
54328;SDS011;40710;51.120;13.136;2023-04-07T08:49:46;13.21;;;13.21;;
54328;SDS011;40710;51.120;13.136;2023-04-07T08:52:16;13.12;;;13.12;;
54328;SDS011;40710;51.120;13.136;2023-04-07T08:54:46;13.41;;;13.41;;
54328;SDS011;40710;51.120;13.136;2023-04-07T08:57:10;13.17;;;13.17;;
54328;SDS011;40710;51.120;13.136;2023-04-07T08:59:37;13.57;;;13.57;;
54328;SDS011;40710;51.120;13.136;2023-04-07T09:02:06;13.27;;;13.27;;
54328;SDS011;40710;51.120;13.136;2023-04-07T09:04:31;27.18;;;26.67;;
54328;SDS011;40710;51.120;13.136;2023-04-07T09:06:55;32.90;;;32.19;;
54328;SDS011;40710;51.120;13.136;2023-04-07T09:09:20;15.95;;;15.89;;
54328;SDS011;40710;51.120;13.136;2023-04-07T09:11:47;13.83;;;13.82;;
54328;SDS011;40710;51.120;13.136;2023-04-07T09:14:12;13.08;;;13.08;;
54328;SDS011;40710;51.120;13.136;2023-04-07T09:16:36;12.96;;;12.96;;
54328;SDS011;40710;51.120;13.136;2023-04-07T09:19:01;13.37;;;13.37;;
54328;SDS011;40710;51.120;13.136;2023-04-07T09:21:26;13.91;;;13.88;;
54328;SDS011;40710;51.120;13.136;2023-04-07T09:24:19;13.55;;;13.55;;
54328;SDS011;40710;51.120;13.136;2023-04-07T09:26:51;12.51;;;12.51;;
54328;SDS011;40710;51.120;13.136;2023-04-07T09:29:35;12.48;;;12.48;;
54328;SDS011;40710;51.120;13.136;2023-04-07T09:32:00;13.27;;;13.27;;
54328;SDS011;40710;51.120;13.136;2023-04-07T09:34:42;13.58;;;13.58;;
54328;SDS011;40710;51.120;13.136;2023-04-07T09:37:07;13.37;;;13.33;;
54328;SDS011;40710;51.120;13.136;2023-04-07T09:39:47;12.80;;;12.79;;
54328;SDS011;40710;51.120;13.136;2023-04-07T09:42:13;22.32;;;22.27;;
54328;SDS011;40710;51.120;13.136;2023-04-07T09:44:38;27.68;;;27.06;;
54328;SDS011;40710;51.120;13.136;2023-04-07T09:47:04;14.54;;;14.44;;
54328;SDS011;40710;51.120;13.136;2023-04-07T09:49:29;13.58;;;13.58;;
54328;SDS011;40710;51.120;13.136;2023-04-07T09:51:58;13.17;;;13.17;;
54328;SDS011;40710;51.120;13.136;2023-04-07T09:57:02;13.83;;;13.83;;
54328;SDS011;40710;51.120;13.136;2023-04-07T09:59:30;14.22;;;14.22;;
54328;SDS011;40710;51.120;13.136;2023-04-07T10:01:56;13.61;;;13.61;;
54328;SDS011;40710;51.120;13.136;2023-04-07T10:04:22;13.56;;;13.56;;
54328;SDS011;40710;51.120;13.136;2023-04-07T10:06:48;13.59;;;13.59;;
54328;SDS011;40710;51.120;13.136;2023-04-07T10:09:12;13.49;;;13.49;;
54328;SDS011;40710;51.120;13.136;2023-04-07T10:11:38;14.04;;;14.02;;
54328;SDS011;40710;51.120;13.136;2023-04-07T10:14:05;14.62;;;14.60;;
54328;SDS011;40710;51.120;13.136;2023-04-07T10:16:30;14.38;;;14.38;;
54328;SDS011;40710;51.120;13.136;2023-04-07T10:18:56;14.15;;;14.15;;
54328;SDS011;40710;51.120;13.136;2023-04-07T10:21:21;13.42;;;13.42;;
54328;SDS011;40710;51.120;13.136;2023-04-07T10:23:53;13.49;;;13.49;;
54328;SDS011;40710;51.120;13.136;2023-04-07T10:26:25;13.86;;;13.86;;
54328;SDS011;40710;51.120;13.136;2023-04-07T10:28:57;13.75;;;13.72;;
54328;SDS011;40710;51.120;13.136;2023-04-07T10:31:28;14.42;;;14.42;;
54328;SDS011;40710;51.120;13.136;2023-04-07T10:33:53;14.17;;;14.17;;
54328;SDS011;40710;51.120;13.136;2023-04-07T10:36:20;14.48;;;14.38;;
54328;SDS011;40710;51.120;13.136;2023-04-07T10:39:17;16.80;;;16.69;;
54328;SDS011;40710;51.120;13.136;2023-04-07T10:41:33;19.14;;;19.09;;
54328;SDS011;40710;51.120;13.136;2023-04-07T10:43:59;18.11;;;18.05;;
54328;SDS011;40710;51.120;13.136;2023-04-07T10:46:24;16.33;;;16.19;;
54328;SDS011;40710;51.120;13.136;2023-04-07T10:49:07;13.90;;;13.90;;
54328;SDS011;40710;51.120;13.136;2023-04-07T10:51:33;13.59;;;13.58;;
54328;SDS011;40710;51.120;13.136;2023-04-07T10:54:14;13.43;;;13.43;;
54328;SDS011;40710;51.120;13.136;2023-04-07T10:59:26;14.07;;;14.07;;
54328;SDS011;40710;51.120;13.136;2023-04-07T11:01:53;13.81;;;13.81;;
54328;SDS011;40710;51.120;13.136;2023-04-07T11:04:36;13.72;;;13.70;;
54328;SDS011;40710;51.120;13.136;2023-04-07T11:07:02;14.03;;;14.02;;
54328;SDS011;40710;51.120;13.136;2023-04-07T11:09:26;14.83;;;14.71;;
54328;SDS011;40710;51.120;13.136;2023-04-07T11:11:51;15.12;;;15.03;;
54328;SDS011;40710;51.120;13.136;2023-04-07T11:14:23;14.31;;;14.31;;
54328;SDS011;40710;51.120;13.136;2023-04-07T11:16:55;14.37;;;14.37;;
54328;SDS011;40710;51.120;13.136;2023-04-07T11:19:20;14.05;;;14.02;;
54328;SDS011;40710;51.120;13.136;2023-04-07T11:21:44;14.21;;;14.21;;
54328;SDS011;40710;51.120;13.136;2023-04-07T11:24:09;13.80;;;13.80;;
54328;SDS011;40710;51.120;13.136;2023-04-07T11:26:37;14.13;;;14.13;;
54328;SDS011;40710;51.120;13.136;2023-04-07T11:29:03;13.74;;;13.72;;
54328;SDS011;40710;51.120;13.136;2023-04-07T11:31:28;13.58;;;13.53;;
54328;SDS011;40710;51.120;13.136;2023-04-07T11:33:58;13.76;;;13.64;;
54328;SDS011;40710;51.120;13.136;2023-04-07T11:36:29;13.59;;;13.55;;
54328;SDS011;40710;51.120;13.136;2023-04-07T11:38:57;13.72;;;13.72;;
54328;SDS011;40710;51.120;13.136;2023-04-07T11:41:24;13.62;;;13.62;;
54328;SDS011;40710;51.120;13.136;2023-04-07T11:44:03;12.96;;;12.94;;
54328;SDS011;40710;51.120;13.136;2023-04-07T11:46:32;12.49;;;12.49;;
54328;SDS011;40710;51.120;13.136;2023-04-07T11:49:07;12.70;;;12.65;;
54328;SDS011;40710;51.120;13.136;2023-04-07T11:51:33;12.42;;;12.41;;
54328;SDS011;40710;51.120;13.136;2023-04-07T11:53:58;11.48;;;11.43;;
54328;SDS011;40710;51.120;13.136;2023-04-07T11:56:23;11.55;;;11.54;;
54328;SDS011;40710;51.120;13.136;2023-04-07T11:58:51;12.22;;;12.15;;
54328;SDS011;40710;51.120;13.136;2023-04-07T12:01:17;12.08;;;11.96;;
54328;SDS011;40710;51.120;13.136;2023-04-07T12:04:02;12.12;;;12.12;;
54328;SDS011;40710;51.120;13.136;2023-04-07T12:09:01;10.79;;;10.79;;
54328;SDS011;40710;51.120;13.136;2023-04-07T12:11:27;10.37;;;10.33;;
54328;SDS011;40710;51.120;13.136;2023-04-07T12:13:52;10.65;;;10.55;;
54328;SDS011;40710;51.120;13.136;2023-04-07T12:16:17;10.72;;;10.67;;
54328;SDS011;40710;51.120;13.136;2023-04-07T12:18:43;10.53;;;10.53;;
54328;SDS011;40710;51.120;13.136;2023-04-07T12:21:08;10.48;;;10.47;;
54328;SDS011;40710;51.120;13.136;2023-04-07T12:23:32;11.58;;;11.52;;
54328;SDS011;40710;51.120;13.136;2023-04-07T12:25:57;11.16;;;11.14;;
54328;SDS011;40710;51.120;13.136;2023-04-07T12:28:21;11.36;;;11.35;;
54328;SDS011;40710;51.120;13.136;2023-04-07T12:30:46;11.55;;;11.55;;
54328;SDS011;40710;51.120;13.136;2023-04-07T12:33:10;11.49;;;11.48;;
54328;SDS011;40710;51.120;13.136;2023-04-07T12:35:35;11.57;;;11.43;;
54328;SDS011;40710;51.120;13.136;2023-04-07T12:37:59;11.42;;;11.38;;
54328;SDS011;40710;51.120;13.136;2023-04-07T12:40:24;11.08;;;11.04;;
54328;SDS011;40710;51.120;13.136;2023-04-07T12:42:49;10.37;;;10.35;;
54328;SDS011;40710;51.120;13.136;2023-04-07T12:45:14;12.95;;;12.92;;
54328;SDS011;40710;51.120;13.136;2023-04-07T12:47:38;11.01;;;10.94;;
54328;SDS011;40710;51.120;13.136;2023-04-07T12:50:03;11.23;;;11.23;;
54328;SDS011;40710;51.120;13.136;2023-04-07T12:52:28;12.17;;;12.09;;
54328;SDS011;40710;51.120;13.136;2023-04-07T12:54:53;12.86;;;12.79;;
54328;SDS011;40710;51.120;13.136;2023-04-07T12:57:18;33.22;;;32.22;;
54328;SDS011;40710;51.120;13.136;2023-04-07T12:59:42;15.00;;;14.64;;
54328;SDS011;40710;51.120;13.136;2023-04-07T13:02:08;11.30;;;11.02;;
54328;SDS011;40710;51.120;13.136;2023-04-07T13:04:33;10.61;;;10.59;;
54328;SDS011;40710;51.120;13.136;2023-04-07T13:06:58;10.81;;;10.79;;
54328;SDS011;40710;51.120;13.136;2023-04-07T13:09:24;10.68;;;10.68;;
54328;SDS011;40710;51.120;13.136;2023-04-07T13:11:48;10.38;;;10.38;;
54328;SDS011;40710;51.120;13.136;2023-04-07T13:14:13;9.74;;;9.69;;
54328;SDS011;40710;51.120;13.136;2023-04-07T13:16:38;9.50;;;9.47;;
54328;SDS011;40710;51.120;13.136;2023-04-07T13:19:02;9.74;;;9.71;;
54328;SDS011;40710;51.120;13.136;2023-04-07T13:21:27;10.59;;;10.59;;
54328;SDS011;40710;51.120;13.136;2023-04-07T13:23:51;10.44;;;10.44;;
54328;SDS011;40710;51.120;13.136;2023-04-07T13:26:16;20.20;;;20.20;;
54328;SDS011;40710;51.120;13.136;2023-04-07T13:28:41;26.76;;;26.33;;
54328;SDS011;40710;51.120;13.136;2023-04-07T13:31:08;12.43;;;12.40;;
54328;SDS011;40710;51.120;13.136;2023-04-07T13:33:34;11.49;;;11.49;;
54328;SDS011;40710;51.120;13.136;2023-04-07T13:36:00;10.80;;;10.80;;
54328;SDS011;40710;51.120;13.136;2023-04-07T13:38:25;11.00;;;11.00;;
54328;SDS011;40710;51.120;13.136;2023-04-07T13:40:49;10.89;;;10.89;;
54328;SDS011;40710;51.120;13.136;2023-04-07T13:43:14;11.44;;;11.44;;
54328;SDS011;40710;51.120;13.136;2023-04-07T13:45:40;11.15;;;11.15;;
54328;SDS011;40710;51.120;13.136;2023-04-07T13:48:05;11.03;;;11.03;;
54328;SDS011;40710;51.120;13.136;2023-04-07T13:50:30;11.30;;;11.30;;
54328;SDS011;40710;51.120;13.136;2023-04-07T13:52:54;11.89;;;11.82;;
54328;SDS011;40710;51.120;13.136;2023-04-07T13:55:19;11.13;;;11.13;;
54328;SDS011;40710;51.120;13.136;2023-04-07T13:57:44;11.64;;;11.60;;
54328;SDS011;40710;51.120;13.136;2023-04-07T14:00:09;11.61;;;11.61;;
54328;SDS011;40710;51.120;13.136;2023-04-07T14:02:34;11.70;;;11.65;;
54328;SDS011;40710;51.120;13.136;2023-04-07T14:04:58;11.48;;;11.40;;
54328;SDS011;40710;51.120;13.136;2023-04-07T14:07:23;11.09;;;11.09;;
54328;SDS011;40710;51.120;13.136;2023-04-07T14:09:48;11.78;;;11.77;;
54328;SDS011;40710;51.120;13.136;2023-04-07T14:12:12;11.34;;;11.33;;
54328;SDS011;40710;51.120;13.136;2023-04-07T14:14:37;20.27;;;20.06;;
54328;SDS011;40710;51.120;13.136;2023-04-07T14:17:02;26.02;;;25.61;;